Time;durP1;ratioP1;P1;durP2;ratioP2;P2;SDS_P1;SDS_P2;PMS_P1;PMS_P2;Temp;Humidity;BMP_temperature;BMP_pressure;BME280_temperature;BME280_humidity;BME280_pressure;Samples;Min_cycle;Max_cycle;Signal;HPM_P1;HPM_P2
2021/12/13 00:01:40;;;;;;;0.10;0.03;;;;;21.80;99872.00;;;;4872456;29;20144;-74
2021/12/13 00:04:20;;;;;;;;;;;;;21.80;99869.00;;;;4873133;29;20084;-73
2021/12/13 00:06:55;;;;;;;0.13;0.08;;;;;21.70;99844.00;;;;4872940;29;20440;-74
2021/12/13 00:09:28;;;;;;;0.00;0.00;;;;;21.70;99848.00;;;;4878274;29;20061;-74
2021/12/13 00:12:01;;;;;;;0.08;0.08;;;;;21.60;99846.00;;;;4878556;29;20566;-74
2021/12/13 00:14:35;;;;;;;1.20;0.22;;;;;21.70;99862.00;;;;4880273;29;20049;-73
2021/12/13 00:17:07;;;;;;;0.00;0.00;;;;;21.80;99866.00;;;;4875785;29;20056;-75
2021/12/13 00:19:42;;;;;;;0.00;0.00;;;;;21.90;99883.00;;;;4872961;29;20885;-73
2021/12/13 00:22:19;;;;;;;0.00;0.00;;;;;21.90;99882.00;;;;4876513;29;20045;-72
2021/12/13 00:24:52;;;;;;;3.40;0.65;;;;;22.00;99897.00;;;;4879440;29;20120;-73
2021/12/13 00:27:27;;;;;;;0.00;0.00;;;;;22.10;99900.00;;;;4879480;29;20124;-73
2021/12/13 00:30:34;;;;;;;0.08;0.08;;;;;22.10;99905.00;;;;4881297;29;20047;-72
2021/12/13 00:33:38;;;;;;;1.23;0.32;;;;;22.20;99899.00;;;;4869977;29;20049;-72
2021/12/13 00:36:24;;;;;;;0.00;0.00;;;;;22.10;99909.00;;;;4897382;29;20049;-73
2021/12/13 00:39:05;;;;;;;5.75;1.90;;;;;22.00;99905.00;;;;4884779;29;20101;-73
2021/12/13 00:41:37;;;;;;;0.00;0.00;;;;;21.90;99896.00;;;;4885257;29;20049;-73
2021/12/13 00:44:14;;;;;;;0.00;0.00;;;;;21.90;99913.00;;;;4885210;29;20045;-72
2021/12/13 00:46:46;;;;;;;0.10;0.00;;;;;21.90;99908.00;;;;4896308;29;20051;-72
2021/12/13 00:49:18;;;;;;;0.00;0.00;;;;;21.90;99917.00;;;;4882650;29;20096;-72
2021/12/13 00:51:51;;;;;;;4.95;1.80;;;;;21.80;99926.00;;;;4890981;29;20057;-73
2021/12/13 00:54:36;;;;;;;0.00;0.00;;;;;21.70;99920.00;;;;4894007;29;20048;-74
2021/12/13 00:57:46;;;;;;;0.00;0.00;;;;;21.40;99928.00;;;;4894072;29;20081;-72
2021/12/13 01:00:26;;;;;;;0.00;0.00;;;;;21.30;99904.00;;;;4884689;29;20493;-73
2021/12/13 01:02:58;;;;;;;0.00;0.00;;;;;21.10;99924.00;;;;4882989;29;20044;-72
2021/12/13 01:05:45;;;;;;;;;;;;;21.10;99931.00;;;;4881800;29;20037;-73
2021/12/13 01:08:56;;;;;;;0.00;0.00;;;;;21.20;99943.00;;;;4882397;29;19927;-73
2021/12/13 01:11:44;;;;;;;0.00;0.00;;;;;21.20;99952.00;;;;4884884;29;20059;-73
2021/12/13 01:14:28;;;;;;;0.00;0.00;;;;;21.20;99956.00;;;;4880665;29;20040;-73
2021/12/13 01:17:13;;;;;;;0.00;0.00;;;;;21.10;99953.00;;;;4887530;29;20534;-73
2021/12/13 01:19:59;;;;;;;0.10;0.10;;;;;21.10;99933.00;;;;4891979;29;20072;-73
2021/12/13 01:28:37;;;;;;;0.10;0.10;;;;;21.30;99943.00;;;;4887474;29;20114;-73
2021/12/13 01:31:17;;;;;;;0.00;0.00;;;;;21.30;99938.00;;;;4893513;29;20128;-73
2021/12/13 01:33:48;;;;;;;0.00;0.00;;;;;21.20;99944.00;;;;4894272;29;20543;-73
2021/12/13 01:36:24;;;;;;;4.18;1.25;;;;;21.30;99953.00;;;;4893244;29;20112;-74
2021/12/13 01:38:59;;;;;;;0.00;0.00;;;;;21.30;99923.00;;;;4893164;29;20064;-74
2021/12/13 01:41:53;;;;;;;0.00;0.00;;;;;21.30;99944.00;;;;4893440;29;20052;-73
2021/12/13 01:44:27;;;;;;;0.00;0.00;;;;;21.10;99924.00;;;;4892121;29;20505;-73
2021/12/13 01:47:29;;;;;;;0.00;0.00;;;;;20.90;99928.00;;;;4893340;29;20052;-72
2021/12/13 01:50:21;;;;;;;0.00;0.00;;;;;20.70;99941.00;;;;4885878;29;20061;-73
2021/12/13 01:52:54;;;;;;;0.08;0.08;;;;;20.60;99934.00;;;;4892868;29;20175;-73
2021/12/13 01:55:26;;;;;;;0.00;0.00;;;;;20.50;99939.00;;;;4893094;29;20112;-73
2021/12/13 01:58:26;;;;;;;0.00;0.00;;;;;20.40;99925.00;;;;4891741;29;20100;-73
2021/12/13 02:01:11;;;;;;;0.00;0.00;;;;;20.40;99914.00;;;;4892866;29;20048;-73
2021/12/13 02:03:54;;;;;;;0.00;0.00;;;;;20.40;99901.00;;;;4893557;29;20424;-73
2021/12/13 02:06:35;;;;;;;0.00;0.00;;;;;20.40;99908.00;;;;4892914;29;20100;-73
2021/12/13 02:09:20;;;;;;;0.00;0.00;;;;;20.60;99917.00;;;;4893037;29;20044;-73
2021/12/13 02:11:55;;;;;;;0.00;0.00;;;;;20.60;99907.00;;;;4893124;29;20052;-73
2021/12/13 02:14:29;;;;;;;4.00;1.52;;;;;20.60;99917.00;;;;4891441;29;20052;-72
2021/12/13 02:17:12;;;;;;;0.00;0.00;;;;;20.70;99903.00;;;;4907022;29;20063;-73
2021/12/13 02:19:41;;;;;;;0.00;0.00;;;;;20.70;99924.00;;;;4892854;29;20048;-73
2021/12/13 02:22:31;;;;;;;0.00;0.00;;;;;20.80;99922.00;;;;4892239;29;20085;-72
2021/12/13 02:25:27;;;;;;;0.00;0.00;;;;;20.90;99922.00;;;;4892657;29;20102;-73
2021/12/13 02:28:19;;;;;;;0.00;0.00;;;;;20.90;99932.00;;;;4887541;29;20084;-74
2021/12/13 02:30:58;;;;;;;10.13;9.38;;;;;20.90;99916.00;;;;4892550;29;20405;-73
2021/12/13 02:33:43;;;;;;;0.00;0.00;;;;;20.90;99932.00;;;;4892436;29;20037;-72
2021/12/13 02:36:17;;;;;;;0.00;0.00;;;;;20.90;99926.00;;;;4891626;29;20048;-73
2021/12/13 02:38:48;;;;;;;0.00;0.00;;;;;20.80;99938.00;;;;4892523;29;20067;-72
2021/12/13 02:41:22;;;;;;;0.00;0.00;;;;;20.70;99937.00;;;;4892138;29;20080;-73
2021/12/13 02:43:55;;;;;;;0.00;0.00;;;;;20.60;99928.00;;;;4892229;29;20120;-73
2021/12/13 02:46:26;;;;;;;0.00;0.00;;;;;20.50;99945.00;;;;4906426;29;20405;-73
2021/12/13 02:49:05;;;;;;;0.00;0.00;;;;;20.40;99936.00;;;;4892393;29;20053;-73
2021/12/13 02:51:37;;;;;;;0.00;0.00;;;;;20.40;99948.00;;;;4893228;29;20053;-72
2021/12/13 02:54:21;;;;;;;0.52;0.52;;;;;20.40;99940.00;;;;4897800;29;20068;-72
2021/12/13 02:57:07;;;;;;;0.00;0.00;;;;;20.30;99921.00;;;;4895348;29;20063;-74
2021/12/13 02:59:41;;;;;;;0.73;0.30;;;;;20.30;99927.00;;;;4892331;29;20553;-73
2021/12/13 03:02:43;;;;;;;0.35;0.20;;;;;20.20;99921.00;;;;4892122;29;20049;-73
2021/12/13 03:05:18;;;;;;;0.00;0.00;;;;;20.10;99925.00;;;;4891263;29;20549;-74
2021/12/13 03:07:51;;;;;;;0.00;0.00;;;;;20.00;99928.00;;;;4892096;29;20135;-73
2021/12/13 03:10:30;;;;;;;0.00;0.00;;;;;19.90;99912.00;;;;4892143;29;20048;-74
2021/12/13 03:13:00;;;;;;;0.00;0.00;;;;;19.90;99912.00;;;;4892952;29;20056;-72
2021/12/13 03:15:32;;;;;;;0.00;0.00;;;;;19.90;99915.00;;;;4891766;29;20052;-73
2021/12/13 03:18:18;;;;;;;0.00;0.00;;;;;19.90;99913.00;;;;4891858;29;20045;-72
2021/12/13 03:21:01;;;;;;;0.00;0.00;;;;;19.80;99920.00;;;;4891448;29;20079;-73
2021/12/13 03:23:52;;;;;;;0.00;0.00;;;;;19.80;99916.00;;;;4892090;29;20045;-74
2021/12/13 03:26:44;;;;;;;0.00;0.00;;;;;19.90;99910.00;;;;4891651;29;20135;-72
2021/12/13 03:29:41;;;;;;;0.00;0.00;;;;;19.80;99904.00;;;;4887235;29;20072;-73
2021/12/13 03:32:14;;;;;;;0.00;0.00;;;;;19.70;99914.00;;;;4881058;29;20056;-73
2021/12/13 03:35:07;;;;;;;0.00;0.00;;;;;19.70;99906.00;;;;4890121;29;20520;-73
2021/12/13 03:37:38;;;;;;;0.00;0.00;;;;;19.70;99889.00;;;;4865521;29;20049;-73
2021/12/13 03:40:23;;;;;;;0.00;0.00;;;;;19.60;99883.00;;;;4891906;29;20053;-73
2021/12/13 03:42:59;;;;;;;0.00;0.00;;;;;19.60;99889.00;;;;4891639;29;20128;-73
2021/12/13 03:45:51;;;;;;;0.00;0.00;;;;;19.60;99880.00;;;;4891445;29;20171;-73
2021/12/13 03:48:26;;;;;;;0.00;0.00;;;;;19.60;99881.00;;;;4891371;29;20444;-73
2021/12/13 03:51:00;;;;;;;0.00;0.00;;;;;19.50;99886.00;;;;4891243;29;20068;-74
2021/12/13 03:53:33;;;;;;;0.00;0.00;;;;;19.50;99902.00;;;;4891309;29;20045;-72
2021/12/13 03:56:10;;;;;;;0.00;0.00;;;;;19.50;99901.00;;;;4891815;29;20519;-73
2021/12/13 03:58:58;;;;;;;0.00;0.00;;;;;19.50;99904.00;;;;4892006;29;20060;-72
2021/12/13 04:01:40;;;;;;;0.00;0.00;;;;;19.40;99915.00;;;;4888754;29;20532;-72
2021/12/13 04:04:22;;;;;;;0.00;0.00;;;;;19.50;99920.00;;;;4887251;29;20053;-73
2021/12/13 04:07:01;;;;;;;0.00;0.00;;;;;19.60;99932.00;;;;4888813;29;20049;-72
2021/12/13 04:09:31;;;;;;;0.00;0.00;;;;;19.50;99916.00;;;;4894828;29;20059;-73
2021/12/13 04:12:05;;;;;;;0.00;0.00;;;;;19.50;99911.00;;;;4894894;29;20052;-72
2021/12/13 04:14:48;;;;;;;0.00;0.00;;;;;19.50;99910.00;;;;4895377;29;20079;-72
2021/12/13 04:18:26;;;;;;;0.00;0.00;;;;;19.40;99917.00;;;;4895022;29;20449;-72
2021/12/13 04:20:28;;;;;;;0.00;0.00;;;;;19.50;99932.00;;;;4890676;29;20089;-71
2021/12/13 04:23:22;;;;;;;0.00;0.00;;;;;19.40;99910.00;;;;4894705;29;20048;-73
2021/12/13 04:25:52;;;;;;;0.00;0.00;;;;;19.30;99913.00;;;;4895013;29;20127;-72
2021/12/13 04:28:26;;;;;;;0.00;0.00;;;;;19.30;99937.00;;;;4908434;29;20060;-74
2021/12/13 04:31:00;;;;;;;0.00;0.00;;;;;19.20;99926.00;;;;4894995;29;20119;-72
2021/12/13 04:33:37;;;;;;;0.00;0.00;;;;;19.30;99923.00;;;;4894975;29;20049;-73
2021/12/13 04:36:11;;;;;;;0.00;0.00;;;;;19.30;99930.00;;;;4894142;29;20071;-72
2021/12/13 04:39:07;;;;;;;0.00;0.00;;;;;19.20;99929.00;;;;4894067;29;20428;-73
2021/12/13 04:41:42;;;;;;;0.00;0.00;;;;;19.20;99936.00;;;;4893815;29;20091;-72
2021/12/13 04:44:29;;;;;;;0.00;0.00;;;;;19.30;99949.00;;;;4894543;29;20056;-73
2021/12/13 04:47:09;;;;;;;0.00;0.00;;;;;19.30;99907.00;;;;4894568;29;20068;-73
2021/12/13 04:49:48;;;;;;;0.00;0.00;;;;;19.20;99912.00;;;;4894430;29;20053;-73
2021/12/13 04:52:20;;;;;;;0.00;0.00;;;;;19.20;99926.00;;;;4894415;29;20048;-74
2021/12/13 04:54:54;;;;;;;0.00;0.00;;;;;19.20;99934.00;;;;4894220;29;20078;-73
2021/12/13 04:57:24;;;;;;;0.00;0.00;;;;;19.30;99920.00;;;;4893833;29;20045;-73
2021/12/13 05:00:00;;;;;;;0.00;0.00;;;;;19.30;99895.00;;;;4894896;29;20496;-73
2021/12/13 05:02:30;;;;;;;0.00;0.00;;;;;19.20;99897.00;;;;4894565;29;20081;-71
2021/12/13 05:05:03;;;;;;;0.00;0.00;;;;;19.20;99895.00;;;;4894483;29;20045;-73
2021/12/13 05:07:34;;;;;;;0.00;0.00;;;;;19.30;99921.00;;;;4894401;29;20040;-73
2021/12/13 05:10:04;;;;;;;0.00;0.00;;;;;19.40;99909.00;;;;4894173;29;20390;-72
2021/12/13 05:12:33;;;;;;;0.00;0.00;;;;;19.40;99920.00;;;;4894123;29;20049;-73
2021/12/13 05:15:08;;;;;;;0.00;0.00;;;;;19.40;99894.00;;;;4894146;29;20105;-73
2021/12/13 05:17:45;;;;;;;0.00;0.00;;;;;19.40;99892.00;;;;4893801;29;20041;-72
2021/12/13 05:20:23;;;;;;;0.00;0.00;;;;;19.50;99891.00;;;;4893430;29;20445;-73
2021/12/13 05:23:19;;;;;;;0.00;0.00;;;;;19.50;99876.00;;;;4893528;29;20123;-72
2021/12/13 05:25:57;;;;;;;0.00;0.00;;;;;19.50;99893.00;;;;4894194;29;20056;-72
2021/12/13 05:28:36;;;;;;;0.00;0.00;;;;;19.60;99906.00;;;;4894377;29;20126;-74
2021/12/13 05:31:15;;;;;;;0.00;0.00;;;;;19.60;99909.00;;;;4894068;29;20091;-72
2021/12/13 05:33:51;;;;;;;0.20;0.10;;;;;19.80;99910.00;;;;4893247;29;20124;-72
2021/12/13 05:36:25;;;;;;;0.10;0.10;;;;;19.80;99907.00;;;;4893277;29;20134;-73
2021/12/13 05:39:07;;;;;;;0.00;0.00;;;;;19.80;99917.00;;;;4893664;29;20052;-73
2021/12/13 05:41:37;;;;;;;0.00;0.00;;;;;19.70;99889.00;;;;4893235;29;20060;-75
2021/12/13 05:44:12;;;;;;;0.00;0.00;;;;;19.60;99900.00;;;;4893328;29;20078;-73
2021/12/13 05:46:46;;;;;;;0.17;0.17;;;;;19.60;99898.00;;;;4893800;29;20135;-72
2021/12/13 05:49:34;;;;;;;0.10;0.10;;;;;19.60;99907.00;;;;4893706;29;20123;-73
2021/12/13 05:52:11;;;;;;;0.00;0.00;;;;;19.60;99881.00;;;;4893133;29;20512;-72
2021/12/13 05:54:47;;;;;;;0.00;0.00;;;;;19.60;99887.00;;;;4893216;29;20139;-73
2021/12/13 05:57:24;;;;;;;0.00;0.00;;;;;19.70;99878.00;;;;4907412;29;20048;-73
2021/12/13 05:59:59;;;;;;;1.00;0.30;;;;;19.70;99899.00;;;;4893030;29;20457;-73
2021/12/13 06:02:59;;;;;;;0.00;0.00;;;;;19.70;99889.00;;;;4892714;29;20941;-73
2021/12/13 06:05:40;;;;;;;0.00;0.00;;;;;19.80;99887.00;;;;4892979;29;20041;-73
2021/12/13 06:08:16;;;;;;;0.00;0.00;;;;;19.80;99866.00;;;;4892957;29;20524;-71
2021/12/13 06:10:58;;;;;;;0.00;0.00;;;;;19.80;99880.00;;;;4892968;29;20512;-72
2021/12/13 06:13:43;;;;;;;0.00;0.00;;;;;19.80;99891.00;;;;4893134;29;20040;-73
2021/12/13 06:16:47;;;;;;;0.00;0.00;;;;;19.80;99884.00;;;;4892950;29;20051;-72
2021/12/13 06:19:40;;;;;;;0.00;0.00;;;;;19.80;99871.00;;;;4880682;29;20057;-73
2021/12/13 06:22:23;;;;;;;0.00;0.00;;;;;19.80;99874.00;;;;4892641;29;20044;-72
2021/12/13 06:24:59;;;;;;;0.00;0.00;;;;;19.80;99884.00;;;;4892687;29;20044;-73
2021/12/13 06:27:44;;;;;;;0.00;0.00;;;;;19.80;99886.00;;;;4892662;29;20135;-73
2021/12/13 06:30:25;;;;;;;0.10;0.10;;;;;19.80;99884.00;;;;4891637;29;20076;-73
2021/12/13 06:32:59;;;;;;;;;;;;;19.90;99878.00;;;;4893529;29;20045;-73
2021/12/13 06:35:47;;;;;;;0.00;0.00;;;;;19.80;99883.00;;;;4892629;29;19927;-73
2021/12/13 06:38:20;;;;;;;0.00;0.00;;;;;19.80;99875.00;;;;4892141;29;20072;-72
2021/12/13 06:41:15;;;;;;;0.15;0.15;;;;;19.80;99863.00;;;;4892298;29;20048;-72
2021/12/13 06:44:05;;;;;;;0.00;0.00;;;;;19.90;99875.00;;;;4893087;29;20466;-72
2021/12/13 06:47:06;;;;;;;0.00;0.00;;;;;19.90;99860.00;;;;4900609;29;20040;-72
2021/12/13 06:49:49;;;;;;;0.00;0.00;;;;;19.90;99882.00;;;;4896865;29;20133;-72
2021/12/13 06:52:32;;;;;;;0.00;0.00;;;;;19.90;99869.00;;;;4892299;29;20053;-72
2021/12/13 06:55:06;;;;;;;0.00;0.00;;;;;19.90;99887.00;;;;4893250;29;20114;-72
2021/12/13 06:58:00;;;;;;;0.10;0.10;;;;;19.90;99862.00;;;;4892258;29;20056;-72
2021/12/13 07:00:34;;;;;;;0.00;0.00;;;;;19.90;99863.00;;;;4906598;29;20060;-72
2021/12/13 07:03:11;;;;;;;0.17;0.13;;;;;19.90;99888.00;;;;4891742;29;20056;-72
2021/12/13 07:05:53;;;;;;;0.20;0.20;;;;;19.90;99854.00;;;;4906142;29;20045;-72
2021/12/13 07:08:31;;;;;;;0.00;0.00;;;;;20.00;99875.00;;;;4892202;29;20052;-72
2021/12/13 07:11:13;;;;;;;0.00;0.00;;;;;20.00;99840.00;;;;4891979;29;20051;-72
2021/12/13 07:13:50;;;;;;;0.00;0.00;;;;;20.00;99878.00;;;;4891580;29;20076;-72
2021/12/13 07:16:30;;;;;;;0.00;0.00;;;;;20.00;99860.00;;;;4891860;29;20131;-72
2021/12/13 07:19:22;;;;;;;0.00;0.00;;;;;20.00;99870.00;;;;4892024;29;20512;-73
2021/12/13 07:21:56;;;;;;;0.00;0.00;;;;;20.00;99864.00;;;;4891932;29;20037;-72
2021/12/13 07:24:33;;;;;;;0.00;0.00;;;;;20.00;99871.00;;;;4891906;29;20068;-72
2021/12/13 07:27:09;;;;;;;0.00;0.00;;;;;20.00;99893.00;;;;4891559;29;20067;-73
2021/12/13 07:29:42;;;;;;;0.00;0.00;;;;;19.90;99908.00;;;;4891870;29;20128;-73
2021/12/13 07:32:36;;;;;;;0.00;0.00;;;;;20.10;99911.00;;;;4891471;29;20076;-72
2021/12/13 07:35:20;;;;;;;0.00;0.00;;;;;20.20;99902.00;;;;4891406;29;20882;-72
2021/12/13 07:38:08;;;;;;;0.17;0.15;;;;;20.20;99920.00;;;;4891863;29;20048;-73
2021/12/13 07:40:45;;;;;;;0.00;0.00;;;;;20.10;99931.00;;;;4892177;29;20513;-73
2021/12/13 07:43:21;;;;;;;0.15;0.15;;;;;20.10;99924.00;;;;4897214;29;20052;-73
2021/12/13 07:46:22;;;;;;;0.85;0.30;;;;;20.10;99928.00;;;;4897807;29;20504;-73
2021/12/13 07:49:01;;;;;;;0.00;0.00;;;;;20.10;99941.00;;;;4897576;29;20064;-72
2021/12/13 07:51:37;;;;;;;0.00;0.00;;;;;20.10;99918.00;;;;4897568;29;20281;-72
2021/12/13 07:54:12;;;;;;;0.00;0.00;;;;;20.10;99946.00;;;;4897923;29;20051;-72
2021/12/13 07:56:54;;;;;;;0.00;0.00;;;;;20.10;99941.00;;;;4897875;29;20514;-72
2021/12/13 07:59:36;;;;;;;0.00;0.00;;;;;20.10;99941.00;;;;4897472;29;20071;-73
2021/12/13 08:02:10;;;;;;;0.00;0.00;;;;;20.20;99964.00;;;;4898975;29;20056;-73
2021/12/13 08:05:11;;;;;;;0.00;0.00;;;;;20.20;99968.00;;;;4898020;29;20175;-71
2021/12/13 08:07:54;;;;;;;0.00;0.00;;;;;20.20;99950.00;;;;4912092;29;20869;-73
2021/12/13 08:10:34;;;;;;;0.00;0.00;;;;;20.20;99953.00;;;;4897918;29;20045;-73
2021/12/13 08:13:21;;;;;;;0.00;0.00;;;;;20.20;99960.00;;;;4897734;29;20053;-73
2021/12/13 08:15:59;;;;;;;0.00;0.00;;;;;20.20;99980.00;;;;4898516;29;20123;-72
2021/12/13 08:18:35;;;;;;;0.03;0.03;;;;;20.20;99970.00;;;;4897930;29;20532;-73
2021/12/13 08:21:21;;;;;;;0.00;0.00;;;;;20.20;99967.00;;;;4897771;29;20547;-73
2021/12/13 08:23:59;;;;;;;0.00;0.00;;;;;20.20;99952.00;;;;4897190;29;20052;-73
2021/12/13 08:26:31;;;;;;;0.00;0.00;;;;;20.10;99977.00;;;;4897453;29;20047;-73
2021/12/13 08:29:09;;;;;;;0.00;0.00;;;;;20.10;99954.00;;;;4897741;29;20663;-72
2021/12/13 08:31:39;;;;;;;0.00;0.00;;;;;20.10;99979.00;;;;4897387;29;20127;-73
2021/12/13 08:34:34;;;;;;;0.00;0.00;;;;;20.20;99970.00;;;;4897898;29;20112;-74
2021/12/13 08:37:13;;;;;;;0.00;0.00;;;;;20.20;99963.00;;;;4893397;29;20061;-74
2021/12/13 08:39:43;;;;;;;0.00;0.00;;;;;20.20;99952.00;;;;4898157;29;20866;-72
2021/12/13 08:42:18;;;;;;;0.00;0.00;;;;;20.20;99961.00;;;;4897881;29;20416;-73
2021/12/13 08:44:58;;;;;;;0.00;0.00;;;;;20.30;99975.00;;;;4896182;29;20068;-73
2021/12/13 08:47:37;;;;;;;0.00;0.00;;;;;20.30;99964.00;;;;4911258;29;20037;-73
2021/12/13 08:50:13;;;;;;;0.00;0.00;;;;;20.20;99996.00;;;;4897558;29;20423;-72
2021/12/13 08:52:46;;;;;;;10.98;0.85;;;;;20.40;99976.00;;;;4894942;29;20128;-71
2021/12/13 08:55:33;;;;;;;0.03;0.03;;;;;20.50;99995.00;;;;4893085;29;20405;-72
2021/12/13 08:58:12;;;;;;;0.00;0.00;;;;;20.60;99999.00;;;;4893658;29;20093;-72
2021/12/13 09:00:59;;;;;;;0.00;0.00;;;;;20.60;100009.00;;;;4894332;29;20429;-73
2021/12/13 09:03:48;;;;;;;0.00;0.00;;;;;20.70;100007.00;;;;4894848;29;20513;-73
2021/12/13 09:06:18;;;;;;;0.00;0.00;;;;;20.80;100015.00;;;;4893784;29;20048;-73
2021/12/13 09:08:49;;;;;;;0.00;0.00;;;;;20.70;100010.00;;;;4893554;29;20049;-73
2021/12/13 09:11:26;;;;;;;0.00;0.00;;;;;20.80;100024.00;;;;4894193;29;20083;-72
2021/12/13 09:14:15;;;;;;;0.00;0.00;;;;;20.80;100020.00;;;;4893642;29;20592;-73
2021/12/13 09:16:55;;;;;;;0.00;0.00;;;;;20.90;100008.00;;;;4894251;29;20143;-73
2021/12/13 09:19:31;;;;;;;0.00;0.00;;;;;21.00;99998.00;;;;4893997;29;20048;-72
2021/12/13 09:22:13;;;;;;;0.00;0.00;;;;;21.10;100012.00;;;;4893537;29;20048;-73
2021/12/13 09:24:53;;;;;;;;;;;;;21.20;100021.00;;;;4894158;29;20040;-73
2021/12/13 09:27:49;;;;;;;0.10;0.10;;;;;21.40;100021.00;;;;4893689;29;19946;-73
2021/12/13 09:30:34;;;;;;;0.00;0.00;;;;;21.50;100011.00;;;;4893403;29;20100;-73
2021/12/13 09:33:15;;;;;;;0.00;0.00;;;;;21.70;100016.00;;;;4893122;29;20492;-73
2021/12/13 09:36:03;;;;;;;0.00;0.00;;;;;21.80;100014.00;;;;4893624;29;20142;-73
2021/12/13 09:38:36;;;;;;;0.00;0.00;;;;;21.90;99989.00;;;;4894125;29;20037;-72
2021/12/13 09:41:12;;;;;;;0.00;0.00;;;;;21.80;99981.00;;;;4893938;29;20041;-72
2021/12/13 09:43:47;;;;;;;0.00;0.00;;;;;21.90;99993.00;;;;4893417;29;20576;-73
2021/12/13 09:46:27;;;;;;;0.00;0.00;;;;;22.10;99986.00;;;;4893683;29;20159;-74
2021/12/13 09:48:59;;;;;;;0.00;0.00;;;;;22.10;99991.00;;;;4893357;29;20063;-72
2021/12/13 09:51:39;;;;;;;0.00;0.00;;;;;22.20;99989.00;;;;4893051;29;20045;-73
2021/12/13 09:54:11;;;;;;;0.00;0.00;;;;;22.30;100006.00;;;;4893100;29;20052;-73
2021/12/13 09:56:49;;;;;;;0.00;0.00;;;;;22.30;99992.00;;;;4892719;29;20592;-73
2021/12/13 09:59:44;;;;;;;2.13;0.65;;;;;22.40;100012.00;;;;4893121;29;20052;-73
2021/12/13 10:02:26;;;;;;;0.00;0.00;;;;;22.30;99989.00;;;;4892940;29;20473;-73
2021/12/13 10:04:56;;;;;;;0.00;0.00;;;;;22.50;100007.00;;;;4891850;29;20052;-73
2021/12/13 10:07:31;;;;;;;0.00;0.00;;;;;22.50;99990.00;;;;4892546;29;20064;-72
2021/12/13 10:10:09;;;;;;;0.00;0.00;;;;;22.60;99996.00;;;;4906810;29;20087;-74
2021/12/13 10:12:45;;;;;;;0.00;0.00;;;;;22.60;99997.00;;;;4890854;29;20584;-73
2021/12/13 10:15:18;;;;;;;0.13;0.10;;;;;22.60;100003.00;;;;4892871;29;20231;-73
2021/12/13 10:17:52;;;;;;;0.00;0.00;;;;;22.60;100004.00;;;;4893015;29;20048;-74
2021/12/13 10:20:35;;;;;;;0.00;0.00;;;;;22.60;99996.00;;;;4892477;29;20100;-75
2021/12/13 10:23:08;;;;;;;0.75;0.45;;;;;22.60;100001.00;;;;4892486;29;20075;-73
2021/12/13 10:25:42;;;;;;;0.10;0.10;;;;;22.70;100017.00;;;;4892936;29;20088;-74
2021/12/13 10:28:17;;;;;;;0.00;0.00;;;;;22.80;100017.00;;;;4891159;29;20048;-73
2021/12/13 10:30:52;;;;;;;0.00;0.00;;;;;22.80;100005.00;;;;4892154;29;20059;-73
2021/12/13 10:33:23;;;;;;;0.57;0.57;;;;;22.70;99989.00;;;;4892759;29;20508;-73
2021/12/13 10:35:55;;;;;;;0.10;0.10;;;;;22.70;99996.00;;;;4890588;29;20413;-73
2021/12/13 10:38:33;;;;;;;0.00;0.00;;;;;22.80;99999.00;;;;4892633;29;20056;-73
2021/12/13 10:41:14;;;;;;;0.00;0.00;;;;;23.00;100009.00;;;;4894218;29;20867;-73
2021/12/13 10:43:49;;;;;;;0.10;0.10;;;;;23.20;100003.00;;;;4895652;29;20147;-73
2021/12/13 10:46:26;;;;;;;0.00;0.00;;;;;23.30;99981.00;;;;4893277;29;20099;-72
2021/12/13 10:49:11;;;;;;;0.30;0.30;;;;;23.40;99997.00;;;;4891712;29;20044;-73
2021/12/13 10:51:45;;;;;;;0.00;0.00;;;;;23.50;99994.00;;;;4892103;29;20083;-74
2021/12/13 10:54:19;;;;;;;0.00;0.00;;;;;23.60;99973.00;;;;4892448;29;20057;-74
2021/12/13 10:56:54;;;;;;;0.00;0.00;;;;;23.70;99997.00;;;;4892419;29;20049;-74
2021/12/13 10:59:26;;;;;;;0.00;0.00;;;;;24.00;99999.00;;;;4892245;29;20048;-75
2021/12/13 11:02:02;;;;;;;0.00;0.00;;;;;24.20;99985.00;;;;4892615;29;20076;-74
2021/12/13 11:04:43;;;;;;;0.10;0.10;;;;;24.40;99997.00;;;;4892003;29;20532;-73
2021/12/13 11:07:13;;;;;;;0.15;0.15;;;;;24.50;100000.00;;;;4891834;29;20048;-75
2021/12/13 11:09:45;;;;;;;0.00;0.00;;;;;24.70;100003.00;;;;4891916;29;20190;-73
2021/12/13 11:12:37;;;;;;;0.00;0.00;;;;;25.00;100013.00;;;;4892406;29;20087;-72
2021/12/13 11:15:21;;;;;;;0.00;0.00;;;;;25.20;100001.00;;;;4891892;29;20542;-72
2021/12/13 11:17:51;;;;;;;0.00;0.00;;;;;25.10;100030.00;;;;4891373;29;20513;-73
2021/12/13 11:20:29;;;;;;;0.00;0.00;;;;;25.10;100025.00;;;;4891726;29;20120;-72
2021/12/13 11:23:00;;;;;;;0.00;0.00;;;;;25.20;100008.00;;;;4891641;29;20052;-72
2021/12/13 11:25:42;;;;;;;0.00;0.00;;;;;25.40;100017.00;;;;4891471;29;20045;-72
2021/12/13 11:28:14;;;;;;;0.00;0.00;;;;;25.60;100024.00;;;;4892044;29;20132;-75
2021/12/13 11:30:46;;;;;;;0.00;0.00;;;;;25.70;100037.00;;;;4891700;29;20097;-74
2021/12/13 11:33:40;;;;;;;0.00;0.00;;;;;25.90;100026.00;;;;4891400;29;20135;-74
2021/12/13 11:36:24;;;;;;;0.50;0.40;;;;;26.20;100029.00;;;;4873399;29;20056;-73
2021/12/13 11:39:24;;;;;;;0.03;0.03;;;;;26.30;100032.00;;;;4892172;29;20531;-75
2021/12/13 11:42:21;;;;;;;0.17;0.17;;;;;26.60;100029.00;;;;4891246;29;20049;-74
2021/12/13 11:45:27;;;;;;;0.10;0.10;;;;;27.20;100020.00;;;;4891670;29;20123;-72
2021/12/13 11:48:27;;;;;;;0.00;0.00;;;;;27.40;100015.00;;;;4891252;29;20040;-74
2021/12/13 11:51:42;;;;;;;0.00;0.00;;;;;27.60;100003.00;;;;4891893;29;20104;-73
2021/12/13 11:54:11;;;;;;;4.88;4.35;;;;;27.60;100010.00;;;;4891053;29;20512;-73
2021/12/13 11:57:05;;;;;;;0.65;0.38;;;;;27.80;100027.00;;;;4891113;29;20053;-73
2021/12/13 12:00:03;;;;;;;0.15;0.00;;;;;28.10;100016.00;;;;4906023;29;20079;-74
2021/12/13 12:03:09;;;;;;;0.00;0.00;;;;;28.20;99999.00;;;;4891015;29;20048;-72
2021/12/13 12:06:16;;;;;;;0.77;0.47;;;;;29.10;100018.00;;;;4891206;29;20375;-77
2021/12/13 12:09:17;;;;;;;4.63;0.38;;;;;28.80;100023.00;;;;4890725;29;20057;-74
2021/12/13 12:12:17;;;;;;;4.00;0.47;;;;;28.80;100017.00;;;;4891046;29;20076;-76
2021/12/13 12:14:59;;;;;;;0.80;0.77;;;;;28.70;100006.00;;;;4891789;29;20049;-73
2021/12/13 12:17:30;;;;;;;1.00;0.85;;;;;28.80;100018.00;;;;4891343;29;20044;-73
2021/12/13 12:20:00;;;;;;;0.52;0.45;;;;;29.20;99992.00;;;;4891445;29;20119;-74
2021/12/13 12:23:04;;;;;;;0.03;0.03;;;;;29.30;99996.00;;;;4891213;29;20053;-74
2021/12/13 12:25:36;;;;;;;0.13;0.13;;;;;29.50;99994.00;;;;4884867;29;20539;-72
2021/12/13 12:28:13;;;;;;;0.28;0.22;;;;;29.90;99971.00;;;;4890443;29;20040;-74
2021/12/13 12:30:48;;;;;;;0.00;0.00;;;;;31.10;99959.00;;;;4892853;29;20131;-73
2021/12/13 12:33:44;;;;;;;1.58;0.95;;;;;32.60;99980.00;;;;4894694;29;20057;-75
2021/12/13 12:36:24;;;;;;;0.00;0.00;;;;;32.10;99993.00;;;;4893378;29;20061;-75
2021/12/13 12:39:03;;;;;;;0.00;0.00;;;;;32.70;99995.00;;;;4895101;29;20116;-74
2021/12/13 12:42:04;;;;;;;0.08;0.08;;;;;32.30;100019.00;;;;4894798;29;20092;-73
2021/12/13 12:45:01;;;;;;;0.22;0.10;;;;;31.20;100012.00;;;;4894151;29;20053;-75
2021/12/13 12:47:36;;;;;;;1.38;1.27;;;;;30.80;100014.00;;;;4894376;29;20068;-74
2021/12/13 12:50:18;;;;;;;0.65;0.57;;;;;30.80;100024.00;;;;4894525;29;20127;-75
2021/12/13 12:52:51;;;;;;;0.20;0.20;;;;;30.90;100024.00;;;;4894129;29;20041;-75
2021/12/13 12:55:26;;;;;;;0.00;0.00;;;;;30.50;100026.00;;;;4894101;29;20064;-73
2021/12/13 12:57:57;;;;;;;0.08;0.08;;;;;30.50;100019.00;;;;4894645;29;20052;-73
2021/12/13 13:00:29;;;;;;;0.05;0.05;;;;;30.30;100054.00;;;;4894058;29;20048;-74
2021/12/13 13:03:00;;;;;;;0.10;0.10;;;;;30.10;100047.00;;;;4894682;29;20489;-75
2021/12/13 13:05:30;;;;;;;0.00;0.00;;;;;30.20;100050.00;;;;4894194;29;20056;-74
2021/12/13 13:08:00;;;;;;;0.00;0.00;;;;;30.20;100050.00;;;;4894124;29;20477;-73
2021/12/13 13:13:11;;;;;;;0.00;0.00;;;;;30.40;100045.00;;;;4893967;29;20132;-74
2021/12/13 13:15:46;;;;;;;0.08;0.08;;;;;30.60;100041.00;;;;4894115;29;20055;-74
2021/12/13 13:18:20;;;;;;;1.95;0.95;;;;;30.50;100030.00;;;;4907537;29;20414;-73
2021/12/13 13:20:57;;;;;;;1.17;0.70;;;;;30.30;100031.00;;;;4892554;29;20054;-73
2021/12/13 13:23:35;;;;;;;0.00;0.00;;;;;30.50;100049.00;;;;4893527;29;20059;-74
2021/12/13 13:26:06;;;;;;;0.00;0.00;;;;;30.60;100052.00;;;;4894228;29;20048;-75
2021/12/13 13:29:05;;;;;;;0.40;0.40;;;;;30.20;100050.00;;;;4893334;29;20064;-74
2021/12/13 13:31:36;;;;;;;0.00;0.00;;;;;30.00;100063.00;;;;4892965;29;20044;-74